Newdale, Idaho
Current Conditions -  °F | °C
As of 10:53 PM on Wednesday 22 Oct 2014 (Local Time) from KRXE Reporting Station
Clear Clear  
Wind Chill: 28°   Ceiling: Unl
Heat Index: 34°   Visibility: 10mi
Dew Point: 28°   Wind: 7mph
Humidity: 79%   Direction: 30°NNE
Pressure: 30.15"   Gusts: NA
Location:  43.89°N, 111.6°W
Report Text: KRXE 230453Z AUTO 03006KT 10SM CLR 01/M02 A3015 RMK AO2 SLP215 T00111022
Loading
Personal Weather Stations






























Interactive Weather Map
Tropical Storm Tracking
New forecast layout! Learn more

10-Day Weather Forecast

Advertisements
Track Severe Weather on mobile